Time Latitude Longitude Accuracy (66% radius in meters) Altitude (meters) Speed (km/hour) Bearing (degrees) Battery (%) GPS flag
11:38:16 57.203613 60.118636 0 0 0 0 1 delete
11:38:03 57.203588 60.118635 0 0 0 0 1 delete
11:37:56 57.203611 60.118616 0 0 0 0 1 delete
11:37:54 57.203628 60.118600 0 0 0 0 1 delete
11:37:52 57.203648 60.118557 0 0 0 0 1 delete
11:37:50 57.203673 60.118513 0 0 0 0 1 delete
11:37:49 57.203684 60.118485 0 0 0 0 1 delete
11:37:47 57.203712 60.118438 0 0 0 0 1 delete
11:37:44 57.203732 60.118397 0 0 0 0 1 delete
11:37:42 57.203759 60.118369 0 0 0 0 1 delete
11:37:41 57.203781 60.118347 0 0 0 0 1 delete
11:37:39 57.203809 60.118333 0 0 0 0 1 delete
11:37:38 57.203837 60.118325 0 0 0 0 1 delete
11:37:34 57.203858 60.118273 0 0 0 0 1 delete
11:37:13 57.203873 60.118294 0 0 0 0 1 delete
11:37:00 57.203896 60.118293 0 0 0 0 1 delete
11:36:59 57.203896 60.118293 0 0 0 0 1 delete
11:36:52 57.203914 60.118287 0 0 0 0 1 delete
11:36:50 57.203932 60.118294 0 0 0 0 1 delete
11:36:48 57.203952 60.118279 0 0 0 0 1 delete
11:36:46 57.203975 60.118247 0 0 0 0 1 delete
11:36:43 57.204002 60.118247 0 0 0 0 1 delete
11:36:41 57.204020 60.118233 0 0 0 0 1 delete
11:36:40 57.204046 60.118216 0 0 0 0 1 delete
11:36:39 57.204095 60.118212 0 0 0 0 1 delete
11:36:38 57.204129 60.118181 0 0 0 0 1 delete
11:36:36 57.204161 60.118139 0 0 0 0 1 delete
11:36:35 57.204170 60.118089 0 0 0 0 1 delete
11:36:34 57.204190 60.118078 0 0 0 0 1 delete
11:36:33 57.204209 60.118060 0 0 0 0 1 delete
11:36:32 57.204227 60.118041 0 0 0 0 1 delete
11:36:31 57.204241 60.118011 0 0 0 0 1 delete
11:36:30 57.204259 60.117987 0 0 0 0 1 delete
11:36:29 57.204282 60.117966 0 0 0 0 1 delete
11:36:28 57.204299 60.117944 0 0 0 0 1 delete
11:36:27 57.204326 60.117907 0 0 0 0 1 delete
11:36:26 57.204347 60.117879 0 0 0 0 1 delete
11:36:25 57.204372 60.117859 0 0 0 0 1 delete
11:36:24 57.204400 60.117846 0 0 0 0 1 delete
11:36:23 57.204426 60.117817 0 0 0 0 1 delete
11:36:22 57.204467 60.117784 0 0 0 0 1 delete
11:36:21 57.204496 60.117751 0 0 0 0 1 delete
11:36:20 57.204521 60.117728 0 0 0 0 1 delete
11:36:19 57.204561 60.117672 0 0 0 0 1 delete
11:36:18 57.204583 60.117654 0 0 0 0 1 delete
11:36:17 57.204606 60.117635 0 0 0 0 1 delete
11:36:15 57.204650 60.117622 0 0 0 0 1 delete
11:36:13 57.204679 60.117591 0 0 0 0 1 delete
11:36:11 57.204709 60.117562 0 0 0 0 1 delete
11:36:10 57.204725 60.117544 0 0 0 0 1 delete